sensor_id;sensor_type;location;lat;lon;timestamp;pressure;altitude;pressure_sealevel;temperature;humidity
13934;BME280;7039;52.168;9.866;2023-04-27T00:01:13;100938.53;;;7.32;69.75
13934;BME280;7039;52.168;9.866;2023-04-27T00:03:40;100946.22;;;7.35;69.79
13934;BME280;7039;52.168;9.866;2023-04-27T00:06:07;100944.78;;;7.25;70.01
13934;BME280;7039;52.168;9.866;2023-04-27T00:08:34;100942.84;;;7.02;69.95
13934;BME280;7039;52.168;9.866;2023-04-27T00:11:00;100936.28;;;7.20;69.99
13934;BME280;7039;52.168;9.866;2023-04-27T00:13:28;100935.38;;;7.21;69.46
13934;BME280;7039;52.168;9.866;2023-04-27T00:15:55;100941.22;;;7.29;69.70
13934;BME280;7039;52.168;9.866;2023-04-27T00:18:21;100942.19;;;7.25;69.28
13934;BME280;7039;52.168;9.866;2023-04-27T00:20:48;100934.31;;;7.28;69.68
13934;BME280;7039;52.168;9.866;2023-04-27T00:23:14;100937.75;;;7.28;68.98
13934;BME280;7039;52.168;9.866;2023-04-27T00:25:41;100944.03;;;7.20;69.26
13934;BME280;7039;52.168;9.866;2023-04-27T00:28:07;100942.59;;;7.11;68.91
13934;BME280;7039;52.168;9.866;2023-04-27T00:30:35;100939.47;;;6.98;69.70
13934;BME280;7039;52.168;9.866;2023-04-27T00:33:01;100943.50;;;7.08;69.18
13934;BME280;7039;52.168;9.866;2023-04-27T00:35:28;100939.91;;;7.14;69.73
13934;BME280;7039;52.168;9.866;2023-04-27T00:37:55;100943.97;;;7.23;69.14
13934;BME280;7039;52.168;9.866;2023-04-27T00:40:21;100944.19;;;7.15;68.84
13934;BME280;7039;52.168;9.866;2023-04-27T00:42:48;100933.47;;;6.96;69.95
13934;BME280;7039;52.168;9.866;2023-04-27T00:45:14;100942.66;;;7.08;69.83
13934;BME280;7039;52.168;9.866;2023-04-27T00:47:43;100942.88;;;7.00;70.11
13934;BME280;7039;52.168;9.866;2023-04-27T00:50:10;100937.84;;;6.94;70.37
13934;BME280;7039;52.168;9.866;2023-04-27T00:52:37;100946.00;;;7.13;69.92
13934;BME280;7039;52.168;9.866;2023-04-27T00:55:04;100951.34;;;7.07;70.20
13934;BME280;7039;52.168;9.866;2023-04-27T00:57:32;100947.84;;;7.08;70.28
13934;BME280;7039;52.168;9.866;2023-04-27T00:59:59;100951.34;;;7.07;69.98
13934;BME280;7039;52.168;9.866;2023-04-27T01:02:26;100948.59;;;7.13;69.89
13934;BME280;7039;52.168;9.866;2023-04-27T01:04:55;100951.13;;;7.15;70.05
13934;BME280;7039;52.168;9.866;2023-04-27T01:07:23;100956.31;;;7.15;70.08
13934;BME280;7039;52.168;9.866;2023-04-27T01:09:50;100952.28;;;7.04;70.07
13934;BME280;7039;52.168;9.866;2023-04-27T01:12:17;100946.72;;;7.18;70.11
13934;BME280;7039;52.168;9.866;2023-04-27T01:14:43;100960.44;;;7.22;70.11
13934;BME280;7039;52.168;9.866;2023-04-27T01:17:10;100962.56;;;7.07;70.44
13934;BME280;7039;52.168;9.866;2023-04-27T01:19:36;100959.28;;;7.01;70.64
13934;BME280;7039;52.168;9.866;2023-04-27T01:22:05;100956.38;;;7.13;70.76
13934;BME280;7039;52.168;9.866;2023-04-27T01:24:33;100965.94;;;7.11;70.41
13934;BME280;7039;52.168;9.866;2023-04-27T01:27:00;100959.31;;;6.99;70.75
13934;BME280;7039;52.168;9.866;2023-04-27T01:29:28;100967.63;;;7.12;70.73
13934;BME280;7039;52.168;9.866;2023-04-27T01:31:55;100961.84;;;7.02;70.59
13934;BME280;7039;52.168;9.866;2023-04-27T01:34:21;100973.03;;;7.04;70.81
13934;BME280;7039;52.168;9.866;2023-04-27T01:36:48;100970.25;;;7.10;70.98
13934;BME280;7039;52.168;9.866;2023-04-27T01:39:14;100972.34;;;6.98;71.08
13934;BME280;7039;52.168;9.866;2023-04-27T01:41:42;100971.28;;;7.05;71.13
13934;BME280;7039;52.168;9.866;2023-04-27T01:44:08;100977.19;;;7.10;70.77
13934;BME280;7039;52.168;9.866;2023-04-27T01:46:36;100978.13;;;7.07;71.06
13934;BME280;7039;52.168;9.866;2023-04-27T01:49:02;100984.47;;;6.97;71.20
13934;BME280;7039;52.168;9.866;2023-04-27T01:51:29;100995.31;;;7.11;70.97
13934;BME280;7039;52.168;9.866;2023-04-27T01:53:57;100989.72;;;6.94;71.29
13934;BME280;7039;52.168;9.866;2023-04-27T01:56:23;100987.06;;;6.97;71.59
13934;BME280;7039;52.168;9.866;2023-04-27T01:58:52;101004.31;;;6.98;71.77
13934;BME280;7039;52.168;9.866;2023-04-27T02:01:19;100995.28;;;6.80;72.06
13934;BME280;7039;52.168;9.866;2023-04-27T02:03:46;101000.53;;;6.77;72.14
13934;BME280;7039;52.168;9.866;2023-04-27T02:06:12;101003.31;;;6.69;72.25
13934;BME280;7039;52.168;9.866;2023-04-27T02:08:39;101012.63;;;6.77;72.34
13934;BME280;7039;52.168;9.866;2023-04-27T02:11:05;101012.28;;;6.56;72.70
13934;BME280;7039;52.168;9.866;2023-04-27T02:13:32;101006.31;;;6.54;72.60
13934;BME280;7039;52.168;9.866;2023-04-27T02:16:00;101019.06;;;6.62;72.67
13934;BME280;7039;52.168;9.866;2023-04-27T02:18:28;101019.38;;;6.50;72.80
13934;BME280;7039;52.168;9.866;2023-04-27T02:20:56;101023.66;;;6.51;72.13
13934;BME280;7039;52.168;9.866;2023-04-27T02:23:23;101028.25;;;6.39;72.55
13934;BME280;7039;52.168;9.866;2023-04-27T02:25:49;101024.38;;;6.20;73.14
13934;BME280;7039;52.168;9.866;2023-04-27T02:28:16;101030.03;;;6.37;72.69
13934;BME280;7039;52.168;9.866;2023-04-27T02:30:42;101026.59;;;6.37;72.38
13934;BME280;7039;52.168;9.866;2023-04-27T02:33:10;101043.66;;;6.45;72.15
13934;BME280;7039;52.168;9.866;2023-04-27T02:35:37;101035.03;;;6.45;72.12
13934;BME280;7039;52.168;9.866;2023-04-27T02:38:03;101036.88;;;6.40;72.26
13934;BME280;7039;52.168;9.866;2023-04-27T02:40:30;101038.53;;;6.42;72.08
13934;BME280;7039;52.168;9.866;2023-04-27T02:42:57;101037.66;;;6.43;72.21
13934;BME280;7039;52.168;9.866;2023-04-27T02:45:24;101038.69;;;6.36;72.17
13934;BME280;7039;52.168;9.866;2023-04-27T02:47:50;101031.75;;;6.38;72.26
13934;BME280;7039;52.168;9.866;2023-04-27T02:50:18;101037.72;;;6.40;72.49
13934;BME280;7039;52.168;9.866;2023-04-27T02:52:45;101032.03;;;6.24;72.57
13934;BME280;7039;52.168;9.866;2023-04-27T02:55:12;101030.31;;;6.25;72.64
13934;BME280;7039;52.168;9.866;2023-04-27T02:57:38;101024.34;;;6.21;72.54
13934;BME280;7039;52.168;9.866;2023-04-27T03:00:06;101020.41;;;6.06;73.36
13934;BME280;7039;52.168;9.866;2023-04-27T03:02:33;101021.47;;;5.96;73.65
13934;BME280;7039;52.168;9.866;2023-04-27T03:05:00;101019.78;;;5.94;74.09
13934;BME280;7039;52.168;9.866;2023-04-27T03:07:28;101017.19;;;5.94;74.23
13934;BME280;7039;52.168;9.866;2023-04-27T03:09:55;101024.06;;;5.96;74.21
13934;BME280;7039;52.168;9.866;2023-04-27T03:12:22;101028.16;;;6.06;73.94
13934;BME280;7039;52.168;9.866;2023-04-27T03:14:48;101030.97;;;5.96;74.51
13934;BME280;7039;52.168;9.866;2023-04-27T03:17:15;101030.13;;;5.94;74.35
13934;BME280;7039;52.168;9.866;2023-04-27T03:19:41;101026.63;;;5.98;74.26
13934;BME280;7039;52.168;9.866;2023-04-27T03:22:08;101028.31;;;5.99;74.07
13934;BME280;7039;52.168;9.866;2023-04-27T03:24:36;101026.06;;;5.82;74.16
13934;BME280;7039;52.168;9.866;2023-04-27T03:27:02;101027.91;;;5.77;74.38
13934;BME280;7039;52.168;9.866;2023-04-27T03:29:29;101026.00;;;5.83;74.02
13934;BME280;7039;52.168;9.866;2023-04-27T03:31:56;101028.59;;;5.83;74.10
13934;BME280;7039;52.168;9.866;2023-04-27T03:34:22;101026.19;;;5.76;74.00
13934;BME280;7039;52.168;9.866;2023-04-27T03:36:49;101023.06;;;5.60;74.78
13934;BME280;7039;52.168;9.866;2023-04-27T03:39:15;101025.09;;;5.46;75.69
13934;BME280;7039;52.168;9.866;2023-04-27T03:41:43;101030.84;;;5.60;75.18
13934;BME280;7039;52.168;9.866;2023-04-27T03:44:10;101038.66;;;5.57;74.92
13934;BME280;7039;52.168;9.866;2023-04-27T03:46:36;101037.88;;;5.52;75.32
13934;BME280;7039;52.168;9.866;2023-04-27T03:49:03;101035.38;;;5.49;75.52
13934;BME280;7039;52.168;9.866;2023-04-27T03:51:29;101040.47;;;5.52;75.53
13934;BME280;7039;52.168;9.866;2023-04-27T03:53:57;101046.38;;;5.58;75.42
13934;BME280;7039;52.168;9.866;2023-04-27T03:56:24;101042.09;;;5.57;75.33
13934;BME280;7039;52.168;9.866;2023-04-27T03:58:52;101044.88;;;5.48;75.51
13934;BME280;7039;52.168;9.866;2023-04-27T04:01:18;101050.72;;;5.56;75.62
13934;BME280;7039;52.168;9.866;2023-04-27T04:03:46;101044.81;;;5.51;75.66
13934;BME280;7039;52.168;9.866;2023-04-27T04:06:12;101046.56;;;5.49;75.49
13934;BME280;7039;52.168;9.866;2023-04-27T04:08:39;101046.75;;;5.40;75.91
13934;BME280;7039;52.168;9.866;2023-04-27T04:11:05;101042.38;;;5.43;75.63
13934;BME280;7039;52.168;9.866;2023-04-27T04:13:32;101039.81;;;5.42;75.70
13934;BME280;7039;52.168;9.866;2023-04-27T04:16:02;101045.25;;;5.30;75.95
13934;BME280;7039;52.168;9.866;2023-04-27T04:18:29;101040.09;;;5.27;76.14
13934;BME280;7039;52.168;9.866;2023-04-27T04:20:55;101050.69;;;5.14;76.42
13934;BME280;7039;52.168;9.866;2023-04-27T04:23:22;101052.44;;;5.14;76.20
13934;BME280;7039;52.168;9.866;2023-04-27T04:25:48;101056.84;;;5.07;76.73
13934;BME280;7039;52.168;9.866;2023-04-27T04:28:15;101056.94;;;5.02;76.67
13934;BME280;7039;52.168;9.866;2023-04-27T04:30:42;101063.56;;;5.17;76.56
13934;BME280;7039;52.168;9.866;2023-04-27T04:33:10;101064.34;;;5.21;76.24
13934;BME280;7039;52.168;9.866;2023-04-27T04:35:36;101065.22;;;5.20;75.83
13934;BME280;7039;52.168;9.866;2023-04-27T04:38:04;101054.28;;;5.06;76.12
13934;BME280;7039;52.168;9.866;2023-04-27T04:40:31;101057.78;;;5.03;76.06
13934;BME280;7039;52.168;9.866;2023-04-27T04:42:57;101065.44;;;5.09;75.99
13934;BME280;7039;52.168;9.866;2023-04-27T04:45:24;101065.47;;;5.06;76.21
13934;BME280;7039;52.168;9.866;2023-04-27T04:47:51;101074.88;;;5.10;76.02
13934;BME280;7039;52.168;9.866;2023-04-27T04:50:20;101069.78;;;5.07;76.17
13934;BME280;7039;52.168;9.866;2023-04-27T04:52:47;101075.63;;;5.18;75.64
13934;BME280;7039;52.168;9.866;2023-04-27T04:55:14;101076.84;;;4.97;75.85
13934;BME280;7039;52.168;9.866;2023-04-27T04:57:41;101071.78;;;4.91;75.98
13934;BME280;7039;52.168;9.866;2023-04-27T05:00:08;101076.03;;;4.95;76.45
13934;BME280;7039;52.168;9.866;2023-04-27T05:02:37;101086.31;;;4.97;76.90
13934;BME280;7039;52.168;9.866;2023-04-27T05:05:05;101087.91;;;5.06;76.47
13934;BME280;7039;52.168;9.866;2023-04-27T05:07:33;101091.25;;;5.11;76.38
13934;BME280;7039;52.168;9.866;2023-04-27T05:10:00;101086.88;;;5.16;76.53
13934;BME280;7039;52.168;9.866;2023-04-27T05:12:26;101090.94;;;5.29;76.12
13934;BME280;7039;52.168;9.866;2023-04-27T05:14:52;101097.81;;;5.29;75.81
13934;BME280;7039;52.168;9.866;2023-04-27T05:17:19;101102.72;;;5.46;75.56
13934;BME280;7039;52.168;9.866;2023-04-27T05:19:45;101100.06;;;5.47;75.39
13934;BME280;7039;52.168;9.866;2023-04-27T05:22:12;101104.38;;;5.50;75.16
13934;BME280;7039;52.168;9.866;2023-04-27T05:24:40;101103.47;;;5.51;75.44
13934;BME280;7039;52.168;9.866;2023-04-27T05:27:06;101107.63;;;5.59;74.93
13934;BME280;7039;52.168;9.866;2023-04-27T05:29:33;101107.50;;;5.65;74.76
13934;BME280;7039;52.168;9.866;2023-04-27T05:31:59;101107.38;;;5.72;74.55
13934;BME280;7039;52.168;9.866;2023-04-27T05:34:26;101108.19;;;5.74;74.59
13934;BME280;7039;52.168;9.866;2023-04-27T05:36:52;101108.38;;;5.64;74.55
13934;BME280;7039;52.168;9.866;2023-04-27T05:39:18;101116.78;;;5.76;74.64
13934;BME280;7039;52.168;9.866;2023-04-27T05:41:46;101111.41;;;5.85;74.26
13934;BME280;7039;52.168;9.866;2023-04-27T05:44:13;101109.72;;;5.84;73.91
13934;BME280;7039;52.168;9.866;2023-04-27T05:46:39;101106.25;;;5.83;74.02
13934;BME280;7039;52.168;9.866;2023-04-27T05:49:06;101111.31;;;5.90;73.95
13934;BME280;7039;52.168;9.866;2023-04-27T05:51:33;101102.72;;;5.88;73.99
13934;BME280;7039;52.168;9.866;2023-04-27T05:53:59;101113.81;;;5.97;73.41
13934;BME280;7039;52.168;9.866;2023-04-27T05:56:26;101117.91;;;6.06;73.34
13934;BME280;7039;52.168;9.866;2023-04-27T05:58:54;101130.63;;;6.18;73.38
13934;BME280;7039;52.168;9.866;2023-04-27T06:01:20;101125.50;;;6.15;73.01
13934;BME280;7039;52.168;9.866;2023-04-27T06:03:47;101122.56;;;6.31;72.39
13934;BME280;7039;52.168;9.866;2023-04-27T06:06:14;101121.19;;;6.16;72.61
13934;BME280;7039;52.168;9.866;2023-04-27T06:08:41;101132.91;;;6.34;72.70
13934;BME280;7039;52.168;9.866;2023-04-27T06:11:08;101136.22;;;6.39;72.93
13934;BME280;7039;52.168;9.866;2023-04-27T06:13:34;101131.50;;;6.56;72.45
13934;BME280;7039;52.168;9.866;2023-04-27T06:16:03;101136.78;;;6.52;72.36
13934;BME280;7039;52.168;9.866;2023-04-27T06:18:30;101135.91;;;6.53;71.01
13934;BME280;7039;52.168;9.866;2023-04-27T06:21:00;101135.00;;;6.55;70.91
13934;BME280;7039;52.168;9.866;2023-04-27T06:23:27;101135.03;;;6.54;71.39
13934;BME280;7039;52.168;9.866;2023-04-27T06:25:54;101137.91;;;6.40;71.18
13934;BME280;7039;52.168;9.866;2023-04-27T06:28:21;101145.28;;;6.58;70.93
13934;BME280;7039;52.168;9.866;2023-04-27T06:30:47;101151.22;;;6.63;71.01
13934;BME280;7039;52.168;9.866;2023-04-27T06:33:15;101145.44;;;6.88;70.48
13934;BME280;7039;52.168;9.866;2023-04-27T06:35:43;101146.97;;;6.97;70.71
13934;BME280;7039;52.168;9.866;2023-04-27T06:38:09;101144.78;;;6.80;70.86
13934;BME280;7039;52.168;9.866;2023-04-27T06:40:36;101151.50;;;6.88;70.62
13934;BME280;7039;52.168;9.866;2023-04-27T06:43:02;101147.38;;;6.81;69.59
13934;BME280;7039;52.168;9.866;2023-04-27T06:45:29;101149.63;;;6.95;69.86
13934;BME280;7039;52.168;9.866;2023-04-27T06:47:55;101149.41;;;7.04;67.92
13934;BME280;7039;52.168;9.866;2023-04-27T06:50:23;101156.38;;;7.02;67.90
13934;BME280;7039;52.168;9.866;2023-04-27T06:52:50;101154.06;;;7.24;68.54
13934;BME280;7039;52.168;9.866;2023-04-27T06:55:16;101157.31;;;7.34;68.86
13934;BME280;7039;52.168;9.866;2023-04-27T06:57:43;101156.94;;;7.48;67.90
13934;BME280;7039;52.168;9.866;2023-04-27T07:00:11;101159.00;;;7.35;66.19
13934;BME280;7039;52.168;9.866;2023-04-27T07:02:38;101161.47;;;7.40;65.20
13934;BME280;7039;52.168;9.866;2023-04-27T07:05:05;101153.31;;;7.53;64.13
13934;BME280;7039;52.168;9.866;2023-04-27T07:07:33;101148.00;;;7.25;64.76
13934;BME280;7039;52.168;9.866;2023-04-27T07:09:59;101152.06;;;7.68;64.36
13934;BME280;7039;52.168;9.866;2023-04-27T07:12:26;101152.50;;;7.51;64.85
13934;BME280;7039;52.168;9.866;2023-04-27T07:14:52;101146.72;;;7.42;64.07
13934;BME280;7039;52.168;9.866;2023-04-27T07:17:19;101151.16;;;7.69;64.78
13934;BME280;7039;52.168;9.866;2023-04-27T07:19:46;101156.84;;;7.84;65.44
13934;BME280;7039;52.168;9.866;2023-04-27T07:22:12;101152.25;;;7.93;63.70
13934;BME280;7039;52.168;9.866;2023-04-27T07:24:41;101160.28;;;8.15;64.68
13934;BME280;7039;52.168;9.866;2023-04-27T07:27:08;101151.06;;;8.04;64.65
13934;BME280;7039;52.168;9.866;2023-04-27T07:29:34;101152.44;;;8.17;63.61
13934;BME280;7039;52.168;9.866;2023-04-27T07:32:04;101161.19;;;8.44;63.35
13934;BME280;7039;52.168;9.866;2023-04-27T07:34:31;101169.06;;;8.43;61.65
13934;BME280;7039;52.168;9.866;2023-04-27T07:36:57;101162.91;;;8.45;62.16
13934;BME280;7039;52.168;9.866;2023-04-27T07:39:24;101160.72;;;8.60;61.10
13934;BME280;7039;52.168;9.866;2023-04-27T07:41:52;101177.56;;;8.76;60.91
13934;BME280;7039;52.168;9.866;2023-04-27T07:44:19;101169.91;;;8.71;60.17
13934;BME280;7039;52.168;9.866;2023-04-27T07:46:46;101170.47;;;9.08;59.98
13934;BME280;7039;52.168;9.866;2023-04-27T07:49:13;101174.50;;;9.18;59.50
13934;BME280;7039;52.168;9.866;2023-04-27T07:51:40;101176.66;;;9.04;59.14
13934;BME280;7039;52.168;9.866;2023-04-27T07:54:07;101159.13;;;8.55;58.61
13934;BME280;7039;52.168;9.866;2023-04-27T07:56:33;101165.38;;;8.50;58.30
13934;BME280;7039;52.168;9.866;2023-04-27T07:59:01;101166.09;;;8.53;58.29
13934;BME280;7039;52.168;9.866;2023-04-27T08:01:28;101159.06;;;8.57;57.87
13934;BME280;7039;52.168;9.866;2023-04-27T08:03:54;101157.19;;;8.62;58.84
13934;BME280;7039;52.168;9.866;2023-04-27T08:06:21;101167.91;;;9.33;58.18
13934;BME280;7039;52.168;9.866;2023-04-27T08:08:47;101160.50;;;9.47;57.80
13934;BME280;7039;52.168;9.866;2023-04-27T08:11:14;101151.56;;;9.03;57.75
13934;BME280;7039;52.168;9.866;2023-04-27T08:13:40;101152.72;;;9.20;57.61
13934;BME280;7039;52.168;9.866;2023-04-27T08:16:08;101151.88;;;9.20;55.57
13934;BME280;7039;52.168;9.866;2023-04-27T08:18:35;101152.19;;;9.11;55.07
13934;BME280;7039;52.168;9.866;2023-04-27T08:21:02;101150.75;;;9.01;55.64
13934;BME280;7039;52.168;9.866;2023-04-27T08:23:29;101151.41;;;9.07;55.14
13934;BME280;7039;52.168;9.866;2023-04-27T08:25:57;101152.38;;;9.05;55.44
13934;BME280;7039;52.168;9.866;2023-04-27T08:28:23;101145.56;;;9.27;55.53
13934;BME280;7039;52.168;9.866;2023-04-27T08:30:50;101150.56;;;9.33;55.28
13934;BME280;7039;52.168;9.866;2023-04-27T08:33:17;101150.31;;;9.39;55.78
13934;BME280;7039;52.168;9.866;2023-04-27T08:35:44;101152.69;;;9.72;54.49
13934;BME280;7039;52.168;9.866;2023-04-27T08:38:10;101142.19;;;9.49;53.12
13934;BME280;7039;52.168;9.866;2023-04-27T08:40:41;101145.06;;;9.66;54.25
13934;BME280;7039;52.168;9.866;2023-04-27T08:43:07;101132.16;;;9.63;55.10
13934;BME280;7039;52.168;9.866;2023-04-27T08:45:34;101143.13;;;10.20;54.38
13934;BME280;7039;52.168;9.866;2023-04-27T08:48:01;101137.34;;;10.12;56.35
13934;BME280;7039;52.168;9.866;2023-04-27T08:50:28;101151.59;;;10.25;53.83
13934;BME280;7039;52.168;9.866;2023-04-27T08:52:55;101135.56;;;9.65;53.53
13934;BME280;7039;52.168;9.866;2023-04-27T08:55:22;101148.78;;;9.84;53.70
13934;BME280;7039;52.168;9.866;2023-04-27T08:57:55;101143.63;;;10.06;54.00
13934;BME280;7039;52.168;9.866;2023-04-27T09:00:23;101143.47;;;10.11;51.47
13934;BME280;7039;52.168;9.866;2023-04-27T09:02:50;101143.13;;;10.20;50.29
13934;BME280;7039;52.168;9.866;2023-04-27T09:05:17;101140.09;;;10.07;51.60
13934;BME280;7039;52.168;9.866;2023-04-27T09:07:56;101154.03;;;10.75;52.27
13934;BME280;7039;52.168;9.866;2023-04-27T09:10:23;101147.78;;;11.01;49.16
13934;BME280;7039;52.168;9.866;2023-04-27T09:12:57;101146.25;;;11.38;50.20
13934;BME280;7039;52.168;9.866;2023-04-27T09:15:24;101141.06;;;11.37;49.91
13934;BME280;7039;52.168;9.866;2023-04-27T09:17:54;101143.66;;;11.78;49.02
13934;BME280;7039;52.168;9.866;2023-04-27T09:20:21;101136.66;;;11.78;50.44
13934;BME280;7039;52.168;9.866;2023-04-27T09:22:51;101137.13;;;11.88;50.62
13934;BME280;7039;52.168;9.866;2023-04-27T09:25:25;101137.59;;;11.57;48.88
13934;BME280;7039;52.168;9.866;2023-04-27T09:27:52;101138.25;;;11.21;49.05
13934;BME280;7039;52.168;9.866;2023-04-27T09:30:19;101135.19;;;11.11;48.63
13934;BME280;7039;52.168;9.866;2023-04-27T09:32:53;101139.09;;;11.01;48.50
13934;BME280;7039;52.168;9.866;2023-04-27T09:35:23;101136.63;;;11.39;48.46
13934;BME280;7039;52.168;9.866;2023-04-27T09:37:50;101124.97;;;10.84;48.77
13934;BME280;7039;52.168;9.866;2023-04-27T09:40:18;101126.53;;;10.89;47.53
13934;BME280;7039;52.168;9.866;2023-04-27T09:42:49;101127.22;;;11.14;48.58
13934;BME280;7039;52.168;9.866;2023-04-27T09:45:16;101123.94;;;10.89;47.26
13934;BME280;7039;52.168;9.866;2023-04-27T09:47:44;101123.94;;;10.89;46.76
13934;BME280;7039;52.168;9.866;2023-04-27T09:50:12;101117.09;;;11.06;47.67
13934;BME280;7039;52.168;9.866;2023-04-27T09:52:39;101114.53;;;10.84;46.93
13934;BME280;7039;52.168;9.866;2023-04-27T09:55:08;101110.50;;;10.98;45.80
13934;BME280;7039;52.168;9.866;2023-04-27T09:57:39;101112.97;;;11.01;44.80
13934;BME280;7039;52.168;9.866;2023-04-27T10:00:22;101112.72;;;10.86;46.64
13934;BME280;7039;52.168;9.866;2023-04-27T10:03:01;101121.41;;;11.48;48.56
13934;BME280;7039;52.168;9.866;2023-04-27T10:05:49;101124.91;;;11.88;46.15
13934;BME280;7039;52.168;9.866;2023-04-27T10:08:24;101118.06;;;11.65;46.78
13934;BME280;7039;52.168;9.866;2023-04-27T10:10:52;101121.47;;;11.67;47.26
13934;BME280;7039;52.168;9.866;2023-04-27T10:13:23;101123.09;;;11.90;47.32
13934;BME280;7039;52.168;9.866;2023-04-27T10:15:51;101119.84;;;12.04;46.20
13934;BME280;7039;52.168;9.866;2023-04-27T10:18:25;101115.88;;;11.75;45.09
13934;BME280;7039;52.168;9.866;2023-04-27T10:20:52;101119.34;;;11.36;44.96
13934;BME280;7039;52.168;9.866;2023-04-27T10:23:23;101125.66;;;11.51;43.47
13934;BME280;7039;52.168;9.866;2023-04-27T10:25:50;101127.16;;;11.57;43.92
13934;BME280;7039;52.168;9.866;2023-04-27T10:28:17;101124.19;;;11.64;43.24
13934;BME280;7039;52.168;9.866;2023-04-27T10:30:46;101122.03;;;11.95;44.75
13934;BME280;7039;52.168;9.866;2023-04-27T10:33:17;101120.81;;;12.21;44.99
13934;BME280;7039;52.168;9.866;2023-04-27T10:35:53;101115.13;;;12.49;45.41
13934;BME280;7039;52.168;9.866;2023-04-27T10:38:21;101118.66;;;12.84;43.72
13934;BME280;7039;52.168;9.866;2023-04-27T10:40:56;101114.91;;;12.90;43.92
13934;BME280;7039;52.168;9.866;2023-04-27T10:43:24;101101.41;;;12.44;42.46
13934;BME280;7039;52.168;9.866;2023-04-27T10:45:51;101107.19;;;12.69;41.49
13934;BME280;7039;52.168;9.866;2023-04-27T10:48:20;101113.06;;;13.09;40.71
13934;BME280;7039;52.168;9.866;2023-04-27T10:50:46;101104.34;;;13.09;43.69
13934;BME280;7039;52.168;9.866;2023-04-27T10:53:16;101103.56;;;12.72;41.85
13934;BME280;7039;52.168;9.866;2023-04-27T10:55:42;101098.53;;;12.50;42.83
13934;BME280;7039;52.168;9.866;2023-04-27T10:58:09;101096.34;;;12.94;44.27
13934;BME280;7039;52.168;9.866;2023-04-27T11:00:38;101093.78;;;12.58;41.76
13934;BME280;7039;52.168;9.866;2023-04-27T11:03:11;101096.22;;;12.61;40.85
13934;BME280;7039;52.168;9.866;2023-04-27T11:05:40;101090.59;;;12.51;41.63
13934;BME280;7039;52.168;9.866;2023-04-27T11:08:10;101093.34;;;12.67;39.91
13934;BME280;7039;52.168;9.866;2023-04-27T11:10:38;101082.03;;;13.02;41.78
13934;BME280;7039;52.168;9.866;2023-04-27T11:13:09;101085.81;;;13.64;42.95
13934;BME280;7039;52.168;9.866;2023-04-27T11:15:44;101090.84;;;14.00;40.65
13934;BME280;7039;52.168;9.866;2023-04-27T11:18:10;101082.47;;;13.45;39.79
13934;BME280;7039;52.168;9.866;2023-04-27T11:20:37;101079.91;;;13.26;39.63
13934;BME280;7039;52.168;9.866;2023-04-27T11:23:06;101071.47;;;13.38;39.08
13934;BME280;7039;52.168;9.866;2023-04-27T11:25:35;101076.59;;;13.40;38.85
13934;BME280;7039;52.168;9.866;2023-04-27T11:28:02;101065.53;;;13.00;39.50
13934;BME280;7039;52.168;9.866;2023-04-27T11:30:29;101083.19;;;13.31;39.85
13934;BME280;7039;52.168;9.866;2023-04-27T11:32:56;101084.63;;;13.36;38.16
13934;BME280;7039;52.168;9.866;2023-04-27T11:35:31;101088.56;;;13.78;39.86
13934;BME280;7039;52.168;9.866;2023-04-27T11:37:58;101077.22;;;13.94;37.96
13934;BME280;7039;52.168;9.866;2023-04-27T11:40:26;101077.66;;;14.34;39.16
13934;BME280;7039;52.168;9.866;2023-04-27T11:42:56;101079.81;;;14.73;37.60
13934;BME280;7039;52.168;9.866;2023-04-27T11:45:25;101074.94;;;13.88;38.30
13934;BME280;7039;52.168;9.866;2023-04-27T11:47:52;101067.59;;;14.10;40.68
13934;BME280;7039;52.168;9.866;2023-04-27T11:50:19;101077.06;;;14.29;37.71
13934;BME280;7039;52.168;9.866;2023-04-27T11:52:48;101066.06;;;14.06;40.37
13934;BME280;7039;52.168;9.866;2023-04-27T11:55:15;101070.22;;;14.10;39.66
13934;BME280;7039;52.168;9.866;2023-04-27T11:57:43;101064.53;;;13.86;38.26
13934;BME280;7039;52.168;9.866;2023-04-27T12:00:10;101053.53;;;14.27;38.50
13934;BME280;7039;52.168;9.866;2023-04-27T12:02:39;101058.34;;;14.35;38.79
13934;BME280;7039;52.168;9.866;2023-04-27T12:05:06;101062.50;;;14.55;37.60
13934;BME280;7039;52.168;9.866;2023-04-27T12:07:33;101051.44;;;14.18;37.05
13934;BME280;7039;52.168;9.866;2023-04-27T12:10:00;101052.25;;;14.34;37.52
13934;BME280;7039;52.168;9.866;2023-04-27T12:12:27;101053.69;;;14.86;38.85
13934;BME280;7039;52.168;9.866;2023-04-27T12:14:54;101058.47;;;14.94;36.28
13934;BME280;7039;52.168;9.866;2023-04-27T12:17:22;101048.94;;;14.63;36.44
13934;BME280;7039;52.168;9.866;2023-04-27T12:19:49;101047.28;;;14.76;36.78
13934;BME280;7039;52.168;9.866;2023-04-27T12:22:15;101044.56;;;14.77;37.04
13934;BME280;7039;52.168;9.866;2023-04-27T12:24:42;101049.69;;;15.23;36.36
13934;BME280;7039;52.168;9.866;2023-04-27T12:27:08;101050.66;;;15.22;35.92
13934;BME280;7039;52.168;9.866;2023-04-27T12:29:35;101050.00;;;15.33;35.25
13934;BME280;7039;52.168;9.866;2023-04-27T12:32:03;101048.44;;;15.74;33.43
13934;BME280;7039;52.168;9.866;2023-04-27T12:34:31;101042.06;;;16.05;34.76
13934;BME280;7039;52.168;9.866;2023-04-27T12:36:57;101039.25;;;16.08;34.02
13934;BME280;7039;52.168;9.866;2023-04-27T12:39:25;101031.94;;;15.99;38.11
13934;BME280;7039;52.168;9.866;2023-04-27T12:42:16;101033.28;;;15.20;35.24
13934;BME280;7039;52.168;9.866;2023-04-27T12:44:47;101033.09;;;15.09;35.46
13934;BME280;7039;52.168;9.866;2023-04-27T12:47:17;101030.31;;;15.26;37.21
13934;BME280;7039;52.168;9.866;2023-04-27T12:49:43;101035.47;;;15.42;34.99
13934;BME280;7039;52.168;9.866;2023-04-27T12:52:12;101031.31;;;15.81;34.67
13934;BME280;7039;52.168;9.866;2023-04-27T12:54:39;101029.66;;;16.07;35.26
13934;BME280;7039;52.168;9.866;2023-04-27T12:57:06;101026.31;;;15.62;35.57
13934;BME280;7039;52.168;9.866;2023-04-27T13:00:07;101022.41;;;15.40;36.94
13934;BME280;7039;52.168;9.866;2023-04-27T13:02:42;101027.00;;;15.65;36.40
13934;BME280;7039;52.168;9.866;2023-04-27T13:11:27;101025.75;;;17.69;32.25
13934;BME280;7039;52.168;9.866;2023-04-27T13:13:53;101015.56;;;17.39;32.69
13934;BME280;7039;52.168;9.866;2023-04-27T13:16:20;101027.53;;;17.82;32.97